Home > Products > Valid Products > TAF

000
FTUS46 KSTO 211700 CCA
TAFSCK
TAF COR
KSCK 211741Z 2118/2218 28010KT P6SM BKN200
     FM220800 33005KT P6SM SCT200=



000
FTUS46 KSTO 211700
TAFRDD
TAF
KRDD 211740Z 2118/2218 17009KT P6SM BKN100
     FM220400 VRB04KT P6SM SCT200=



000
FTUS46 KSTO 211700
TAFSMF
TAF
KSMF 211740Z 2118/2218 17008KT P6SM BKN120 BKN200
     FM220700 15007KT P6SM SCT200=



000
FTUS46 KSTO 211700
TAFRBL
TAF
KRBL 211740Z 2118/2218 16008KT P6SM BKN120
     FM220600 16005KT P6SM SCT200=



000
FTUS46 KSTO 211700
TAFSAC
TAF
KSAC 211740Z 2118/2218 22008KT P6SM SCT120 BKN200
     FM220700 18005KT P6SM SCT200=



000
FTUS46 KSTO 211700
TAFMHR
TAF
KMHR 211740Z 2118/2218 21008KT P6SM BKN100
     FM220600 14006KT P6SM SCT200=



000
FTUS46 KSTO 211700
TAFSCK
TAF
KSCK 211740Z 2118/2218 28009KT P6SM SCT200=



000
FTUS46 KSTO 211400 AAA
TAFMHR
TAF AMD
KMHR 211410Z 2114/2212 15007KT P6SM VCSH SCT120 BKN200
     FM211800 21006KT P6SM SCT200
     FM220600 14005KT P6SM SKC=



000
FTUS46 KSTO 211100
TAFMHR
TAF
KMHR 211120Z 2112/2212 13006KT P6SM VCSH SCT120 BKN200
      TEMPO 2113/2116 BKN012
     FM211800 21006KT P6SM SCT200
     FM220600 14005KT P6SM SKC
      AMD NOT SKED=



000
FTUS46 KSTO 211100
TAFSAC
TAF
KSAC 211120Z 2112/2212 16006KT P6SM VCSH SCT120 BKN200
     FM211800 22008KT P6SM SCT200=



000
FTUS46 KSTO 211100
TAFSMF
TAF
KSMF 211120Z 2112/2212 14006KT P6SM VCSH SCT120 BKN200
     FM211800 20009KT P6SM SCT200
     FM220700 15007KT P6SM SKC=



000
FTUS46 KSTO 211100
TAFRDD
TAF
KRDD 211120Z 2112/2212 VRB04KT P6SM BKN150
     FM212200 18007KT P6SM SCT200=



000
FTUS46 KSTO 211100
TAFRBL
TAF
KRBL 211120Z 2112/2212 32005KT P6SM BKN150
     FM212200 17008KT P6SM SCT200=



000
FTUS46 KSTO 211100
TAFSCK
TAF
KSCK 211120Z 2112/2212 VRB04KT P6SM SCT120 BKN200
     FM211800 28009KT P6SM SCT200=



000
FTUS46 KSTO 210500
TAFSMF
TAF
KSMF 210536Z 2106/2206 17010KT P6SM BKN120
      TEMPO 2106/2108 -TSRA BKN060CB
     FM211800 18008KT P6SM SCT200=



000
FTUS46 KSTO 210500
TAFMHR
TAF
KMHR 210536Z 2106/2206 18007KT P6SM BKN120
      TEMPO 2106/2108 -TSRA BKN060CB
     FM211800 21006KT P6SM SCT200=



000
FTUS46 KSTO 210500
TAFSAC
TAF
KSAC 210536Z 2106/2206 21007KT P6SM BKN120
      TEMPO 2106/2108 -TSRA BKN060CB
     FM211800 22008KT P6SM SCT200=



000
FTUS46 KSTO 210500
TAFRDD
TAF
KRDD 210536Z 2106/2206 VRB04KT P6SM BKN150
     FM212200 16010KT P6SM SCT200=



000
FTUS46 KSTO 210500
TAFRBL
TAF
KRBL 210536Z 2106/2206 16007KT P6SM BKN200=



000
FTUS46 KSTO 210500
TAFSCK
TAF
KSCK 210536Z 2106/2206 32009KT P6SM VCTS SCT100CB BKN120
     FM210900 34006KT P6SM BKN120
     FM211800 30008KT P6SM SCT200=



000
FTUS46 KSTO 210200 AAA
TAFSMF
TAF AMD
KSMF 210237Z 2103/2124 17010KT P6SM VCTS SCT100CB BKN200
     FM210600 15010KT P6SM BKN120
     FM211800 18008KT P6SM SCT200=



000
FTUS46 KSTO 210200 AAA
TAFSAC
TAF AMD
KSAC 210235Z 2103/2124 21007KT P6SM VCTS SCT100CB BKN200
     FM210600 15006KT P6SM BKN150
     FM211800 21008KT P6SM SCT200=



000
FTUS46 KSTO 210200 AAA
TAFSCK
TAF AMD
KSCK 210234Z 2103/2124 32009KT P6SM VCTS SCT100CB BKN200
     FM210600 VRB05KT P6SM SCT150
     FM211800 30008KT P6SM SCT200=



000
FTUS46 KSTO 202300
TAFSAC
TAF
KSAC 202338Z 2100/2124 21007KT P6SM SCT120
     FM210400 15006KT P6SM BKN150
     FM211800 21008KT P6SM SCT200=



000
FTUS46 KSTO 202300
TAFRDD
TAF
KRDD 202338Z 2100/2124 17013KT P6SM SCT200
     FM210400 VRB04KT P6SM BKN150
     FM212200 16010KT P6SM SCT200=



000
FTUS46 KSTO 202300
TAFMHR
TAF
KMHR 202338Z 2100/2124 25007KT P6SM BKN120
     FM210400 15007KT P6SM BKN120
     FM211800 21006KT P6SM SCT200=



000
FTUS46 KSTO 202300
TAFSCK
TAF
KSCK 202338Z 2100/2124 32009KT P6SM SCT200
     FM210500 VRB05KT P6SM SCT150
     FM211800 30008KT P6SM SCT200=



000
FTUS46 KSTO 202300
TAFRBL
TAF
KRBL 202338Z 2100/2124 15013KT P6SM SKC
     FM210400 VRB04KT P6SM BKN200
     FM212100 15012KT P6SM SCT200=



000
FTUS46 KSTO 202300
TAFSMF
TAF
KSMF 202338Z 2100/2124 17008KT P6SM BKN150
     FM210600 15010KT P6SM BKN120
     FM211800 18008KT P6SM SCT200=



000
FTUS46 KSTO 201700
TAFRBL
TAF
KRBL 201720Z 2018/2118 VRB05KT P6SM SKC
     FM202100 15008KT P6SM SKC
     FM210400 VRB04KT P6SM BKN200=



000
FTUS46 KSTO 201700
TAFSCK
TAF
KSCK 201720Z 2018/2118 30009KT P6SM SCT200
     FM210400 VRB05KT P6SM BKN150=



000
FTUS46 KSTO 201700
TAFRDD
TAF
KRDD 201720Z 2018/2118 VRB05KT P6SM SKC
     FM202300 17011KT P6SM SKC
     FM210300 VRB04KT P6SM BKN200=



000
FTUS46 KSTO 201700
TAFSAC
TAF
KSAC 201720Z 2018/2118 VRB05KT P6SM SCT120
     FM202100 21007KT P6SM SCT120
     FM210600 15006KT P6SM BKN150=



000
FTUS46 KSTO 201700
TAFSMF
TAF
KSMF 201720Z 2018/2118 VRB05KT P6SM SCT120
     FM210000 17008KT P6SM BKN150=



000
FTUS46 KSTO 201700
TAFMHR
TAF
KMHR 201720Z 2018/2118 15005KT P6SM BKN120
     FM202100 21007KT P6SM BKN120
     FM210400 15007KT P6SM BKN120=



000
FTUS46 KSTO 201100 RRA
TAFMHR
TAF
KMHR 201142Z 2012/2112 15005KT P6SM FEW120
     FM202100 21007KT P6SM FEW120
     FM210600 15005KT P6SM SKC=



000
FTUS46 KSTO 201100 RRA
TAFRDD
TAF
KRDD 201142Z 2012/2112 VRB05KT P6SM SKC
     FM210000 17011KT P6SM SKC
     FM210300 VRB04KT P6SM SKC=



000
FTUS46 KSTO 201100 RRA
TAFRBL
TAF
KRBL 201142Z 2012/2112 30005KT P6SM SKC
     FM202100 15008KT P6SM SKC
     FM210600 VRB04KT P6SM SKC=



000
FTUS46 KSTO 201100 RRA
TAFSAC
TAF
KSAC 201142Z 2012/2112 18005KT P6SM FEW120
     FM202100 21007KT P6SM FEW120
     FM210900 15004KT P6SM SKC=



000
FTUS46 KSTO 201100 RRA
TAFSCK
TAF
KSCK 201142Z 2012/2112 VRB04KT P6SM SCT250
     FM201800 30009KT P6SM SCT200
     FM210600 32005KT P6SM SKC=



000
FTUS46 KSTO 201100 RRA
TAFSMF
TAF
KSMF 201142Z 2012/2112 15005KT P6SM FEW120=



000
FTUS46 KSTO 200500
TAFSCK
TAF
KSCK 200526Z 2006/2106 VRB04KT P6SM SCT250
     FM201800 30009KT P6SM SCT200=



000
FTUS46 KSTO 200500
TAFSMF
TAF
KSMF 200526Z 2006/2106 14008KT P6SM SCT120
     FM201800 19008KT P6SM SCT250=



000
FTUS46 KSTO 200500
TAFMHR
TAF
KMHR 200526Z 2006/2106 14006KT P6SM SCT120
     FM201700 23007KT P6SM SCT250=



000
FTUS46 KSTO 200500
TAFRDD
TAF
KRDD 200526Z 2006/2106 VRB05KT P6SM SKC
     FM202200 17011KT P6SM SCT250=



000
FTUS46 KSTO 200500
TAFRBL
TAF
KRBL 200526Z 2006/2106 VRB05KT P6SM SKC
     FM202100 15011KT P6SM SCT250=



000
FTUS46 KSTO 200500
TAFSAC
TAF
KSAC 200526Z 2006/2106 VRB05KT P6SM SCT120
     FM201800 21007KT P6SM SCT250=



000
FTUS46 KSTO 192300
TAFRBL
TAF
KRBL 192320Z 2000/2024 34010KT P6SM SKC
     FM200300 34005KT P6SM SKC
     FM202200 15008KT P6SM SKC=



000
FTUS46 KSTO 192300
TAFSCK
TAF
KSCK 192320Z 2000/2024 30009KT P6SM SKC
     FM200600 VRB05KT P6SM SKC=



000
FTUS46 KSTO 192300
TAFMHR
TAF
KMHR 192320Z 2000/2024 22006KT P6SM SKC
     FM200600 VRB05KT P6SM SKC=



000
FTUS46 KSTO 192300
TAFSMF
TAF
KSMF 192320Z 2000/2024 19008KT P6SM SKC
     FM200600 15005KT P6SM SKC
     FM202200 20007KT P6SM SKC=



000
FTUS46 KSTO 192300
TAFSAC
TAF
KSAC 192320Z 2000/2024 22008KT P6SM SKC
     FM200600 VRB05KT P6SM SKC
     FM202200 23007KT P6SM SKC=



000
FTUS46 KSTO 192300
TAFRDD
TAF
KRDD 192320Z 2000/2024 36008KT P6SM SKC
     FM200300 VRB04KT P6SM SKC=



000
FTUS46 KSTO 191700
TAFRDD
TAF
KRDD 191720Z 1918/2018 35010G16KT P6SM SKC
     FM192100 36008KT P6SM SKC
     FM200300 VRB04KT P6SM SKC=



000
FTUS46 KSTO 191700
TAFSCK
TAF
KSCK 191720Z 1918/2018 30009KT P6SM SKC
     FM200600 VRB05KT P6SM SKC=



000
FTUS46 KSTO 191700
TAFSMF
TAF
KSMF 191720Z 1918/2018 32007KT P6SM SKC
     FM200100 19008KT P6SM SKC
     FM200900 15006KT P6SM SKC=



000
FTUS46 KSTO 191700
TAFRBL
TAF
KRBL 191720Z 1918/2018 35012G18KT P6SM SKC
     FM192100 35008KT P6SM SKC
     FM200300 VRB05KT P6SM FEW250=



000
FTUS46 KSTO 191700
TAFSAC
TAF
KSAC 191720Z 1918/2018 31007KT P6SM SKC
     FM200100 22005KT P6SM SKC
     FM200600 VRB05KT P6SM SKC=



000
FTUS46 KSTO 191700
TAFMHR
TAF
KMHR 191720Z 1918/2018 31007KT P6SM SKC
     FM200100 22005KT P6SM SKC
     FM200600 VRB05KT P6SM SKC=



000
FTUS46 KSTO 191600 AAA
TAFRDD
TAF AMD
KRDD 191602Z 1916/2012 35010G16KT P6SM SKC
     FM200300 VRB04KT P6SM SKC=



000
FTUS46 KSTO 191100
TAFRDD
TAF
KRDD 191133Z 1912/2012 VRB04KT P6SM SKC
     FM191800 36006KT P6SM SKC
     FM200300 VRB04KT P6SM SKC=



000
FTUS46 KSTO 191100
TAFSCK
TAF
KSCK 191133Z 1912/2012 30009KT P6SM SKC
     FM200600 VRB05KT P6SM SKC=



000
FTUS46 KSTO 191100
TAFMHR
TAF
KMHR 191133Z 1912/2012 VRB05KT P6SM SKC
     FM191800 31007KT P6SM SKC
     FM200100 22005KT P6SM SKC
     FM200600 VRB05KT P6SM SKC=



000
FTUS46 KSTO 191100
TAFSAC
TAF
KSAC 191133Z 1912/2012 VRB05KT P6SM SKC
     FM191800 31007KT P6SM SKC
     FM200100 22005KT P6SM SKC
     FM200600 VRB05KT P6SM SKC=



000
FTUS46 KSTO 191100
TAFRBL
TAF
KRBL 191133Z 1912/2012 33005KT P6SM SKC
     FM191800 35010KT P6SM SKC
     FM200300 VRB05KT P6SM FEW250=



000
FTUS46 KSTO 191100
TAFSMF
TAF
KSMF 191133Z 1912/2012 VRB05KT P6SM SKC
     FM191800 32007KT P6SM SKC
     FM200100 19008KT P6SM SKC
     FM200900 15006KT P6SM SKC=



000
FTUS46 KSTO 190500
TAFMHR
TAF
KMHR 190532Z 1906/2006 VRB05KT P6SM SKC
     FM191800 30007KT P6SM SKC
     FM200100 21007KT P6SM SKC=



000
FTUS46 KSTO 190500
TAFRBL
TAF
KRBL 190532Z 1906/2006 32005KT P6SM FEW250
     FM191600 35011KT P6SM FEW250
     FM200400 32006KT P6SM FEW250=



000
FTUS46 KSTO 190500
TAFSAC
TAF
KSAC 190532Z 1906/2006 VRB05KT P6SM SKC
     FM191800 31007KT P6SM SKC
     FM200100 22007KT P6SM SKC=



000
FTUS46 KSTO 190500
TAFSMF
TAF
KSMF 190532Z 1906/2006 15006KT P6SM SKC
     FM191800 32007KT P6SM SKC
     FM200100 19008KT P6SM SKC=



000
FTUS46 KSTO 190500
TAFSCK
TAF
KSCK 190532Z 1906/2006 29009KT P6SM SKC=



000
FTUS46 KSTO 190500
TAFRDD
TAF
KRDD 190532Z 1906/2006 VRB04KT P6SM FEW250
     FM191600 36010KT P6SM FEW250
     FM200300 VRB04KT P6SM FEW250=



000
FTUS46 KSTO 182300
TAFSAC
TAF
KSAC 182321Z 1900/1924 20007KT P6SM SCT050 SCT250
     FM190600 VRB05KT P6SM FEW250=



000
FTUS46 KSTO 182300
TAFMHR
TAF
KMHR 182321Z 1900/1924 22006KT P6SM SCT050 SCT250
     FM190600 VRB05KT P6SM FEW250=



000
FTUS46 KSTO 182300
TAFRBL
TAF
KRBL 182321Z 1900/1924 16011KT P6SM VCSH FEW025 BKN050
     FM190300 33005KT P6SM FEW250
     FM191500 35012G18KT P6SM SKC=



000
FTUS46 KSTO 182300
TAFSCK
TAF
KSCK 182321Z 1900/1924 29010KT P6SM FEW050 SCT250
     FM190600 33006KT P6SM FEW250=



000
FTUS46 KSTO 182300
TAFRDD
TAF
KRDD 182321Z 1900/1924 18011KT P6SM VCSH FEW025 BKN050
     FM190300 35005KT P6SM FEW250
     FM191500 01010G16KT P6SM SKC=



000
FTUS46 KSTO 182300
TAFSMF
TAF
KSMF 182321Z 1900/1924 20007KT P6SM SCT050 SCT250
     FM190600 VRB05KT P6SM FEW250=



    US Dept of Commerce
    National Oceanic and Atmospheric Administration
    National Weather Service
    1325 East West Highway
    Silver Spring, MD 20910
    Page Author: NWS Internet Services Team
Disclaimer
Information Quality
Credits
Glossary
Privacy Policy
Freedom of Information Act (FOIA)
About Us
Career Opportunities